Time;durP1;ratioP1;P1;durP2;ratioP2;P2;SDS_P1;SDS_P2;PMS_P1;PMS_P2;Temp;Humidity;BMP_temperature;BMP_pressure;BME280_temperature;BME280_humidity;BME280_pressure;Samples;Min_cycle;Max_cycle;Signal;HPM_P1;HPM_P2
2021/06/28 00:00:18;;;;;;;8.23;5.68;;;16.80;99.90;;;;;;5013903;28;20073;-64
2021/06/28 00:02:45;;;;;;;6.78;6.10;;;16.80;99.90;;;;;;5015548;28;20057;-64
2021/06/28 00:05:15;;;;;;;7.35;6.55;;;16.80;99.90;;;;;;5014266;28;20104;-66
2021/06/28 00:07:42;;;;;;;7.70;6.82;;;16.80;99.90;;;;;;5016717;28;20051;-66
2021/06/28 00:10:11;;;;;;;5.88;5.35;;;16.80;99.90;;;;;;5015216;28;20068;-65
2021/06/28 00:12:39;;;;;;;5.20;4.75;;;16.80;99.90;;;;;;5017629;28;21463;-64
2021/06/28 00:15:10;;;;;;;6.90;6.18;;;16.80;99.90;;;;;;5016708;28;20155;-64
2021/06/28 00:17:37;;;;;;;6.15;5.65;;;16.80;99.90;;;;;;5017896;28;20123;-67
2021/06/28 00:20:06;;;;;;;6.03;5.53;;;16.70;99.90;;;;;;5016076;28;20175;-64
2021/06/28 00:22:34;;;;;;;6.88;5.50;;;16.70;99.90;;;;;;5012913;28;20049;-65
2021/06/28 00:25:04;;;;;;;6.53;5.68;;;16.70;99.90;;;;;;5014642;28;20054;-64
2021/06/28 00:27:31;;;;;;;7.95;6.75;;;16.70;99.90;;;;;;5013574;28;20049;-67
2021/06/28 00:29:58;;;;;;;8.88;7.10;;;16.60;99.90;;;;;;5012456;28;20061;-65
2021/06/28 00:32:24;;;;;;;6.28;5.65;;;16.70;99.90;;;;;;5012681;28;20134;-63
2021/06/28 00:34:51;;;;;;;7.28;6.38;;;16.70;99.90;;;;;;5013873;28;20192;-64
2021/06/28 00:37:18;;;;;;;7.22;6.57;;;16.70;99.90;;;;;;5008068;28;20104;-64
2021/06/28 00:39:45;;;;;;;6.80;6.15;;;16.70;99.90;;;;;;5006089;28;20144;-66
2021/06/28 00:42:12;;;;;;;9.18;6.13;;;16.60;99.90;;;;;;5009915;28;20045;-65
2021/06/28 00:44:39;;;;;;;6.65;6.15;;;16.70;99.90;;;;;;5011914;28;20104;-67
2021/06/28 00:47:06;;;;;;;8.25;6.40;;;16.70;99.90;;;;;;5010897;28;20053;-69
2021/06/28 00:49:33;;;;;;;6.95;6.00;;;16.70;99.90;;;;;;5012382;28;20679;-68
2021/06/28 00:52:00;;;;;;;8.00;7.07;;;16.60;99.90;;;;;;5010083;28;20050;-69
2021/06/28 00:54:27;;;;;;;6.72;6.13;;;16.60;99.90;;;;;;5011001;28;20077;-67
2021/06/28 00:56:54;;;;;;;7.10;6.43;;;16.60;99.90;;;;;;5011767;28;20077;-66
2021/06/28 00:59:22;;;;;;;6.75;6.15;;;16.60;99.90;;;;;;5011496;28;20068;-67
2021/06/28 01:01:48;;;;;;;7.72;6.93;;;16.60;99.90;;;;;;5011884;28;20153;-67
2021/06/28 01:04:16;;;;;;;7.22;6.50;;;16.70;99.90;;;;;;5009919;28;20608;-69
2021/06/28 01:06:42;;;;;;;8.45;6.93;;;16.60;99.90;;;;;;5011354;28;20072;-69
2021/06/28 01:09:09;;;;;;;8.52;6.70;;;16.60;99.90;;;;;;5011721;28;20049;-68
2021/06/28 01:11:36;;;;;;;11.25;7.97;;;16.60;99.90;;;;;;5011077;28;20046;-68
2021/06/28 01:14:04;;;;;;;6.95;6.28;;;16.60;99.90;;;;;;5009117;28;20162;-69
2021/06/28 01:16:31;;;;;;;7.50;6.80;;;16.60;99.90;;;;;;5010530;28;20175;-69
2021/06/28 01:18:59;;;;;;;7.88;7.05;;;16.50;99.90;;;;;;5009313;28;20076;-69
2021/06/28 01:21:31;;;;;;;7.75;6.95;;;16.50;99.90;;;;;;5010279;28;20494;-69
2021/06/28 01:23:58;;;;;;;8.93;7.45;;;16.50;99.90;;;;;;5008693;28;20057;-69
2021/06/28 01:26:25;;;;;;;7.40;6.65;;;16.50;99.90;;;;;;5025835;28;20144;-67
2021/06/28 01:28:52;;;;;;;6.85;6.25;;;16.50;99.90;;;;;;5009974;28;20426;-69
2021/06/28 01:31:19;;;;;;;7.28;6.57;;;16.50;99.90;;;;;;5011679;28;20111;-68
2021/06/28 01:33:46;;;;;;;7.65;6.95;;;16.50;99.90;;;;;;5008722;28;20125;-65
2021/06/28 01:36:13;;;;;;;9.00;8.00;;;16.50;99.90;;;;;;5009766;28;20484;-68
2021/06/28 01:38:40;;;;;;;7.00;6.40;;;16.50;99.90;;;;;;5008963;28;20187;-67
2021/06/28 01:41:07;;;;;;;8.82;7.65;;;16.50;99.90;;;;;;5011184;28;20069;-66
2021/06/28 01:43:34;;;;;;;9.80;7.53;;;16.50;99.90;;;;;;5007113;28;20045;-67
2021/06/28 01:46:01;;;;;;;10.90;7.47;;;16.60;99.90;;;;;;5007856;28;20077;-69
2021/06/28 01:48:28;;;;;;;8.52;7.72;;;16.60;99.90;;;;;;5009296;28;20046;-67
2021/06/28 01:50:56;;;;;;;7.72;6.93;;;16.60;99.90;;;;;;5009665;28;20204;-66
2021/06/28 01:53:23;;;;;;;10.15;8.23;;;16.60;99.90;;;;;;5010930;28;20866;-67
2021/06/28 01:55:50;;;;;;;10.05;7.65;;;16.60;99.90;;;;;;5009124;28;20053;-68
2021/06/28 01:58:17;;;;;;;9.32;8.25;;;16.50;99.90;;;;;;5010766;28;20127;-66
2021/06/28 02:00:46;;;;;;;10.10;7.13;;;16.60;99.90;;;;;;5008962;28;20053;-68
2021/06/28 02:03:18;;;;;;;11.25;8.10;;;16.60;99.90;;;;;;5010701;28;20501;-67
2021/06/28 02:05:49;;;;;;;8.43;7.63;;;16.60;99.90;;;;;;5010293;28;20041;-69
2021/06/28 02:08:19;;;;;;;10.43;8.52;;;16.60;99.90;;;;;;5008602;28;20065;-66
2021/06/28 02:10:50;;;;;;;8.10;7.32;;;16.60;99.90;;;;;;5009698;28;20160;-68
2021/06/28 02:13:23;;;;;;;9.30;8.23;;;16.60;99.90;;;;;;5009806;28;20060;-67
2021/06/28 02:15:51;;;;;;;9.82;8.82;;;16.60;99.90;;;;;;5007746;28;20107;-67
2021/06/28 02:18:18;;;;;;;7.97;6.97;;;16.70;99.90;;;;;;5009218;28;20041;-67
2021/06/28 02:20:45;;;;;;;8.57;7.03;;;16.60;99.90;;;;;;5008438;28;20550;-68
2021/06/28 02:23:22;;;;;;;8.55;7.25;;;16.60;99.90;;;;;;5009348;28;20038;-69
2021/06/28 02:25:56;;;;;;;7.85;7.05;;;16.60;99.90;;;;;;5008448;28;20054;-66
2021/06/28 02:28:25;;;;;;;8.90;7.78;;;16.60;99.90;;;;;;5007932;28;20050;-66
2021/06/28 02:30:53;;;;;;;7.78;6.97;;;16.60;99.90;;;;;;5008690;28;20050;-68
2021/06/28 02:33:20;;;;;;;7.57;6.78;;;16.60;99.90;;;;;;5008827;28;20578;-68
2021/06/28 02:35:48;;;;;;;8.27;6.93;;;16.60;99.90;;;;;;5008973;28;20049;-67
2021/06/28 02:38:15;;;;;;;8.02;7.07;;;16.60;99.90;;;;;;5007228;28;20053;-69
2021/06/28 02:40:42;;;;;;;6.68;6.00;;;16.60;99.90;;;;;;5009269;28;20056;-67
2021/06/28 02:43:10;;;;;;;7.93;6.97;;;16.60;99.90;;;;;;5010043;28;20752;-66
2021/06/28 02:45:37;;;;;;;7.13;6.45;;;16.60;99.90;;;;;;5006416;28;20117;-68
2021/06/28 02:48:06;;;;;;;8.20;6.35;;;16.70;99.90;;;;;;5008549;28;20060;-68
2021/06/28 02:50:33;;;;;;;8.23;5.47;;;16.70;99.90;;;;;;5009048;28;20184;-67
2021/06/28 02:53:00;;;;;;;6.80;6.13;;;16.80;99.90;;;;;;5008616;28;21486;-69
2021/06/28 02:55:27;;;;;;;6.82;6.22;;;16.80;99.90;;;;;;5007502;28;20053;-68
2021/06/28 02:57:54;;;;;;;7.30;5.65;;;16.80;99.90;;;;;;5008246;28;20069;-66
2021/06/28 03:00:22;;;;;;;6.45;5.68;;;16.80;99.90;;;;;;5006928;28;20144;-69
2021/06/28 03:02:49;;;;;;;6.40;5.28;;;16.90;99.90;;;;;;5008701;28;20156;-69
2021/06/28 03:05:16;;;;;;;8.07;5.28;;;16.90;99.90;;;;;;5009465;28;20042;-69
2021/06/28 03:07:43;;;;;;;6.45;4.75;;;16.90;99.90;;;;;;5022957;28;20466;-69
2021/06/28 03:10:13;;;;;;;6.05;5.45;;;16.90;99.90;;;;;;5023046;28;20065;-68
2021/06/28 03:12:40;;;;;;;9.88;5.47;;;17.00;99.90;;;;;;5008149;28;20057;-67
2021/06/28 03:15:10;;;;;;;5.30;4.80;;;17.00;99.90;;;;;;5008264;28;20059;-67
2021/06/28 03:17:39;;;;;;;5.35;4.32;;;17.00;99.90;;;;;;5008514;28;20061;-65
2021/06/28 03:20:08;;;;;;;5.53;5.00;;;17.00;99.90;;;;;;5005741;28;20733;-66
2021/06/28 03:22:38;;;;;;;4.72;4.18;;;17.00;99.90;;;;;;5006762;28;20051;-69
2021/06/28 03:25:08;;;;;;;5.75;4.93;;;17.10;99.90;;;;;;5008376;28;20077;-68
2021/06/28 03:27:36;;;;;;;4.18;3.78;;;17.10;99.90;;;;;;5006818;28;20080;-69
2021/06/28 03:30:06;;;;;;;5.85;4.82;;;17.20;99.90;;;;;;5006511;28;20141;-68
2021/06/28 03:32:33;;;;;;;5.97;5.45;;;17.20;99.90;;;;;;5008049;28;20054;-67
2021/06/28 03:35:00;;;;;;;5.60;4.80;;;17.30;99.90;;;;;;5007198;28;20513;-68
2021/06/28 03:37:27;;;;;;;4.60;4.20;;;17.30;99.90;;;;;;5006747;28;20045;-67
2021/06/28 03:39:53;;;;;;;6.38;5.57;;;17.30;99.90;;;;;;5006603;28;20176;-65
2021/06/28 03:42:21;;;;;;;6.30;4.75;;;17.40;99.90;;;;;;5006719;28;20672;-69
2021/06/28 03:44:48;;;;;;;5.20;4.78;;;17.40;99.90;;;;;;5009449;28;20078;-66
2021/06/28 03:47:15;;;;;;;4.07;3.70;;;17.50;99.90;;;;;;5007211;28;20053;-67
2021/06/28 03:49:42;;;;;;;6.30;4.20;;;17.50;99.90;;;;;;5007575;28;20060;-69
2021/06/28 03:52:09;;;;;;;7.00;5.30;;;17.60;99.90;;;;;;5006138;28;20203;-67
2021/06/28 03:54:35;;;;;;;5.47;4.45;;;17.60;99.90;;;;;;5006885;28;20107;-66
2021/06/28 03:57:03;;;;;;;6.57;5.95;;;17.70;99.90;;;;;;5008468;28;20050;-68
2021/06/28 03:59:30;;;;;;;4.97;4.57;;;17.70;99.90;;;;;;5011164;28;20150;-69
2021/06/28 04:01:57;;;;;;;5.75;5.25;;;17.80;99.90;;;;;;5008619;28;20071;-69
2021/06/28 04:04:26;;;;;;;8.02;5.75;;;17.80;99.90;;;;;;5010512;28;20052;-69
2021/06/28 04:06:53;;;;;;;5.32;4.82;;;17.90;99.90;;;;;;5011031;28;20068;-66
2021/06/28 04:09:20;;;;;;;6.47;5.25;;;18.00;99.90;;;;;;5010939;28;20647;-66
2021/06/28 04:11:47;;;;;;;8.07;4.95;;;18.20;99.90;;;;;;5010332;28;20137;-67
2021/06/28 04:14:14;;;;;;;5.43;4.75;;;18.20;99.90;;;;;;5009787;28;20053;-69
2021/06/28 04:16:41;;;;;;;6.82;5.78;;;18.30;99.90;;;;;;5010850;28;20115;-67
2021/06/28 04:19:08;;;;;;;6.38;5.38;;;18.30;99.90;;;;;;5011393;28;21445;-65
2021/06/28 04:21:35;;;;;;;6.43;4.45;;;18.40;99.90;;;;;;5009540;28;20096;-68
2021/06/28 04:24:04;;;;;;;6.13;5.28;;;18.40;99.90;;;;;;5008835;28;20135;-68
2021/06/28 04:26:32;;;;;;;9.35;6.40;;;18.40;99.90;;;;;;5011939;28;20049;-68
2021/06/28 04:28:59;;;;;;;5.82;4.80;;;18.50;99.90;;;;;;5009628;28;20131;-66
2021/06/28 04:31:27;;;;;;;5.05;4.55;;;18.60;99.90;;;;;;5009544;28;20064;-69
2021/06/28 04:33:55;;;;;;;6.13;5.28;;;18.60;99.90;;;;;;5009302;28;20507;-69
2021/06/28 04:36:23;;;;;;;10.43;6.72;;;18.70;99.90;;;;;;5010982;28;20546;-69
2021/06/28 04:38:50;;;;;;;9.05;5.75;;;18.70;99.90;;;;;;5009247;28;20060;-69
2021/06/28 04:41:17;;;;;;;5.88;5.28;;;18.80;99.90;;;;;;5000985;28;20146;-66
2021/06/28 04:43:44;;;;;;;7.00;6.30;;;18.80;99.90;;;;;;5007223;28;20504;-65
2021/06/28 04:46:11;;;;;;;7.10;5.35;;;18.90;99.90;;;;;;5000501;28;20479;-69
2021/06/28 04:48:38;;;;;;;6.47;5.88;;;18.90;99.90;;;;;;5010134;28;21626;-66
2021/06/28 04:51:05;;;;;;;7.07;6.38;;;19.00;99.90;;;;;;5011006;28;20046;-68
2021/06/28 04:53:32;;;;;;;6.80;5.95;;;19.00;99.90;;;;;;5009173;28;20122;-67
2021/06/28 04:55:59;;;;;;;6.70;5.95;;;19.00;99.90;;;;;;5010804;28;20464;-68
2021/06/28 04:58:26;;;;;;;5.95;5.25;;;19.10;99.90;;;;;;5010114;28;20127;-67
2021/06/28 05:00:53;;;;;;;6.97;6.38;;;19.10;99.90;;;;;;5010234;28;20054;-67
2021/06/28 05:03:20;;;;;;;6.10;5.47;;;19.20;99.90;;;;;;5009362;28;20046;-68
2021/06/28 05:05:47;;;;;;;10.70;6.18;;;19.20;99.90;;;;;;5011627;28;20154;-68
2021/06/28 05:08:13;;;;;;;6.22;5.45;;;19.20;99.90;;;;;;5007369;28;20712;-67
2021/06/28 05:10:41;;;;;;;6.60;5.65;;;19.30;99.90;;;;;;5010891;28;20132;-68
2021/06/28 05:13:09;;;;;;;7.80;5.70;;;19.30;99.90;;;;;;5008745;28;20084;-66
2021/06/28 05:15:36;;;;;;;5.93;5.38;;;19.40;99.90;;;;;;5010465;28;20057;-68
2021/06/28 05:18:04;;;;;;;6.38;5.75;;;19.40;99.90;;;;;;5006725;28;20059;-68
2021/06/28 05:20:31;;;;;;;5.75;5.25;;;19.40;99.90;;;;;;5010657;28;20125;-67
2021/06/28 05:22:58;;;;;;;6.80;6.22;;;19.50;99.90;;;;;;5007382;28;20080;-66
2021/06/28 05:25:25;;;;;;;6.60;5.10;;;19.60;99.90;;;;;;5007239;28;20061;-66
2021/06/28 05:27:52;;;;;;;6.00;5.18;;;19.70;99.90;;;;;;5006645;28;20077;-68
2021/06/28 05:30:19;;;;;;;6.68;5.65;;;19.70;99.90;;;;;;5010032;28;21026;-67
2021/06/28 05:32:46;;;;;;;6.43;5.82;;;19.70;99.90;;;;;;5008733;28;20042;-68
2021/06/28 05:35:14;;;;;;;6.00;5.45;;;19.80;99.90;;;;;;5007555;28;20486;-68
2021/06/28 05:37:41;;;;;;;5.57;5.18;;;19.80;99.90;;;;;;5008812;28;20049;-67
2021/06/28 05:40:09;;;;;;;7.03;6.03;;;19.90;99.90;;;;;;5006071;28;20099;-67
2021/06/28 05:42:38;;;;;;;6.53;5.95;;;19.90;99.90;;;;;;5006087;28;20701;-68
2021/06/28 05:45:07;;;;;;;10.32;5.93;;;19.90;99.90;;;;;;5010069;28;20098;-67
2021/06/28 05:47:34;;;;;;;7.82;7.13;;;20.00;99.90;;;;;;5006474;28;20127;-67
2021/06/28 05:50:03;;;;;;;6.93;6.35;;;20.00;99.90;;;;;;5004741;28;20049;-67
2021/06/28 05:52:30;;;;;;;7.75;6.97;;;19.90;99.90;;;;;;5006884;28;20138;-68
2021/06/28 05:54:57;;;;;;;6.55;5.95;;;20.00;99.90;;;;;;5007661;28;20153;-69
2021/06/28 05:57:24;;;;;;;7.55;6.25;;;20.00;99.90;;;;;;5006930;28;20054;-68
2021/06/28 05:59:54;;;;;;;7.47;6.78;;;20.00;99.90;;;;;;5006090;28;20149;-69
2021/06/28 06:02:22;;;;;;;7.40;6.80;;;20.00;99.90;;;;;;5007330;28;20993;-66
2021/06/28 06:04:49;;;;;;;7.85;7.07;;;20.00;99.90;;;;;;5006876;28;20156;-66
2021/06/28 06:07:28;;;;;;;7.55;6.75;;;20.00;99.90;;;;;;3948324;28;10002012;-67
2021/06/28 06:09:55;;;;;;;8.20;7.22;;;20.00;99.90;;;;;;2756413;28;10002691;-67
2021/06/28 06:12:21;;;;;;;6.30;5.80;;;20.00;99.90;;;;;;5008159;28;20077;-67
2021/06/28 06:14:48;;;;;;;7.15;6.53;;;20.00;99.90;;;;;;5007858;28;20597;-67
2021/06/28 06:17:15;;;;;;;12.93;7.35;;;20.00;99.90;;;;;;5009528;28;20571;-67
2021/06/28 06:19:42;;;;;;;6.82;6.22;;;20.00;99.90;;;;;;5008328;28;20123;-67
2021/06/28 06:22:09;;;;;;;10.23;6.82;;;20.10;99.90;;;;;;5005868;28;20235;-69
2021/06/28 06:24:36;;;;;;;7.68;6.80;;;20.20;99.90;;;;;;5007786;28;20050;-67
2021/06/28 06:27:06;;;;;;;7.88;7.18;;;20.20;99.90;;;;;;5009592;28;20057;-69
2021/06/28 06:29:35;;;;;;;6.80;6.20;;;20.20;99.90;;;;;;5007059;28;20195;-65
2021/06/28 06:32:02;;;;;;;7.75;7.05;;;20.20;99.90;;;;;;5005987;28;20157;-66
2021/06/28 06:34:29;;;;;;;6.60;5.95;;;20.20;99.90;;;;;;5009410;28;20419;-68
2021/06/28 06:36:56;;;;;;;7.80;7.05;;;20.30;99.90;;;;;;5007022;28;20054;-69
2021/06/28 06:39:23;;;;;;;7.85;7.28;;;20.40;99.90;;;;;;5005420;28;20085;-68
2021/06/28 06:41:50;;;;;;;8.73;6.53;;;20.50;99.90;;;;;;5003025;28;20130;-67
2021/06/28 06:44:17;;;;;;;7.53;6.72;;;20.50;99.90;;;;;;4985361;28;20064;-66
2021/06/28 06:46:44;;;;;;;8.70;7.88;;;20.50;99.90;;;;;;5002339;28;20127;-69
2021/06/28 06:49:10;;;;;;;9.95;6.40;;;20.60;99.90;;;;;;4999326;28;20051;-67
2021/06/28 06:51:37;;;;;;;7.07;6.47;;;20.60;99.90;;;;;;4986579;28;20502;-66
2021/06/28 06:54:04;;;;;;;6.88;6.18;;;20.70;99.90;;;;;;4969247;28;20830;-67
2021/06/28 06:56:32;;;;;;;7.38;6.85;;;20.50;99.90;;;;;;4992659;28;20613;-69
2021/06/28 06:58:59;;;;;;;6.75;6.18;;;20.60;99.90;;;;;;5005712;28;20069;-69
2021/06/28 07:01:26;;;;;;;9.00;8.10;;;20.70;99.90;;;;;;5009412;28;20116;-66
2021/06/28 07:03:52;;;;;;;7.10;6.50;;;20.60;99.90;;;;;;5007730;28;20527;-66
2021/06/28 07:06:19;;;;;;;7.68;7.07;;;20.70;99.90;;;;;;5008668;28;20096;-69
2021/06/28 07:08:46;;;;;;;8.32;7.63;;;20.70;99.90;;;;;;5008047;28;20077;-68
2021/06/28 07:11:13;;;;;;;8.20;6.85;;;20.80;99.90;;;;;;4990348;28;20163;-67
2021/06/28 07:13:51;;;;;;;6.25;5.70;;;20.80;99.90;;;;;;5001369;28;20115;-67
2021/06/28 07:16:30;;;;;;;6.38;5.85;;;20.80;99.90;;;;;;5005936;28;20128;-69
2021/06/28 07:18:59;;;;;;;6.15;5.65;;;20.80;99.90;;;;;;5008347;28;20038;-67
2021/06/28 07:21:27;;;;;;;6.10;5.50;;;20.90;99.90;;;;;;5007638;28;20100;-66
2021/06/28 07:23:56;;;;;;;5.93;5.53;;;20.90;99.90;;;;;;5006154;28;20119;-69
2021/06/28 07:26:25;;;;;;;5.05;4.63;;;20.90;99.90;;;;;;5009493;28;20135;-69
2021/06/28 07:28:53;;;;;;;5.75;5.35;;;20.90;99.90;;;;;;5008123;28;20049;-66
2021/06/28 07:31:21;;;;;;;7.78;6.03;;;20.90;99.90;;;;;;5011839;28;20052;-66
2021/06/28 07:33:49;;;;;;;7.15;6.55;;;20.90;99.90;;;;;;5012574;28;20279;-67
2021/06/28 07:36:16;;;;;;;9.05;6.50;;;20.90;99.90;;;;;;5010193;28;20069;-69
2021/06/28 07:38:43;;;;;;;7.72;7.13;;;20.90;99.90;;;;;;5011699;28;20188;-67
2021/06/28 07:41:10;;;;;;;7.88;6.68;;;20.90;99.90;;;;;;5012388;28;20095;-69
2021/06/28 07:43:38;;;;;;;12.13;8.98;;;20.90;99.90;;;;;;5010284;28;20103;-69
2021/06/28 07:46:05;;;;;;;7.25;6.55;;;20.90;99.90;;;;;;5005645;28;20042;-67
2021/06/28 07:48:32;;;;;;;7.07;5.95;;;21.00;99.90;;;;;;5007075;28;20135;-68
2021/06/28 07:51:00;;;;;;;7.72;7.03;;;21.00;99.90;;;;;;5005230;28;20065;-67
2021/06/28 07:53:27;;;;;;;7.97;7.18;;;21.00;99.90;;;;;;5006875;28;21052;-66
2021/06/28 07:55:54;;;;;;;7.53;6.90;;;21.10;99.90;;;;;;5003018;28;20198;-68
2021/06/28 07:58:21;;;;;;;7.40;6.78;;;21.10;99.90;;;;;;5005996;28;20510;-67
2021/06/28 08:00:48;;;;;;;9.57;8.55;;;21.10;99.90;;;;;;5006061;28;20092;-67
2021/06/28 08:03:15;;;;;;;7.72;7.13;;;21.10;99.90;;;;;;5009135;28;20727;-66
2021/06/28 08:05:42;;;;;;;8.10;7.30;;;21.20;99.90;;;;;;5011657;28;20085;-68
2021/06/28 08:08:09;;;;;;;8.85;7.95;;;21.30;99.90;;;;;;5009829;28;20494;-68
2021/06/28 08:10:36;;;;;;;10.82;9.20;;;21.30;99.90;;;;;;5010001;28;20649;-68
2021/06/28 08:13:03;;;;;;;9.30;8.50;;;21.30;99.90;;;;;;5012302;28;20051;-68
2021/06/28 08:15:30;;;;;;;8.95;8.05;;;21.20;99.90;;;;;;5010761;28;20049;-68
2021/06/28 08:17:57;;;;;;;8.75;8.07;;;21.30;99.90;;;;;;5010486;28;20252;-66
2021/06/28 08:20:24;;;;;;;14.55;8.90;;;21.30;99.90;;;;;;5011424;28;20053;-68
2021/06/28 08:22:51;;;;;;;8.95;8.05;;;21.30;99.90;;;;;;5010661;28;21005;-66
2021/06/28 08:25:21;;;;;;;9.23;8.40;;;21.30;99.90;;;;;;5011341;28;21060;-65
2021/06/28 08:27:50;;;;;;;9.40;8.63;;;21.40;99.90;;;;;;5012254;28;20510;-67
2021/06/28 08:30:18;;;;;;;11.75;10.85;;;21.40;99.90;;;;;;5010562;28;20149;-66
2021/06/28 08:32:45;;;;;;;12.02;10.82;;;21.50;99.90;;;;;;5011385;28;20171;-65
2021/06/28 08:35:12;;;;;;;11.00;9.95;;;21.60;99.90;;;;;;5011714;28;20083;-68
2021/06/28 08:37:39;;;;;;;10.65;9.70;;;21.60;99.90;;;;;;5010410;28;20041;-68
2021/06/28 08:40:08;;;;;;;9.40;8.63;;;21.50;99.90;;;;;;5009342;28;20057;-68
2021/06/28 08:42:35;;;;;;;11.05;10.05;;;21.40;99.90;;;;;;5011059;28;20142;-67
2021/06/28 08:45:03;;;;;;;8.93;8.13;;;21.50;99.90;;;;;;5010812;28;20049;-68
2021/06/28 08:47:31;;;;;;;9.05;7.75;;;21.50;99.90;;;;;;5008681;28;20056;-65
2021/06/28 08:49:59;;;;;;;9.75;8.85;;;21.30;99.90;;;;;;5004882;28;20842;-66
2021/06/28 08:52:26;;;;;;;7.80;7.10;;;21.40;99.90;;;;;;5005335;28;20081;-67
2021/06/28 08:54:53;;;;;;;10.85;9.50;;;21.40;99.90;;;;;;5006063;28;20204;-66
2021/06/28 08:57:20;;;;;;;8.75;7.95;;;21.40;99.90;;;;;;5004750;28;20052;-65
2021/06/28 08:59:48;;;;;;;14.10;10.82;;;21.50;99.90;;;;;;5006681;28;20088;-67
2021/06/28 09:02:15;;;;;;;9.98;8.95;;;21.60;99.90;;;;;;5004376;28;20746;-66
2021/06/28 09:05:06;;;;;;;9.80;8.90;;;21.60;99.90;;;;;;5007518;28;20163;-66
2021/06/28 09:07:33;;;;;;;9.43;8.38;;;21.70;99.90;;;;;;5008855;28;20046;-68
2021/06/28 09:10:00;;;;;;;9.90;8.93;;;21.60;99.90;;;;;;5009878;28;20065;-66
2021/06/28 09:12:27;;;;;;;8.90;8.10;;;21.70;99.90;;;;;;5008349;28;20045;-66
2021/06/28 09:14:57;;;;;;;11.27;10.15;;;21.70;99.90;;;;;;5010266;28;20047;-69
2021/06/28 09:17:31;;;;;;;10.82;9.75;;;21.70;99.90;;;;;;5009241;28;20107;-67
2021/06/28 09:20:21;;;;;;;8.27;7.47;;;21.80;99.90;;;;;;5007944;28;20771;-66
2021/06/28 09:22:49;;;;;;;10.52;8.20;;;21.70;99.90;;;;;;5009359;28;20126;-66
2021/06/28 09:25:34;;;;;;;7.78;7.13;;;21.70;99.90;;;;;;5011998;28;20136;-65
2021/06/28 09:28:03;;;;;;;8.63;7.85;;;21.70;99.90;;;;;;5007798;28;20414;-67
2021/06/28 09:30:30;;;;;;;9.68;8.68;;;21.60;99.90;;;;;;5011716;28;20797;-65
2021/06/28 09:33:00;;;;;;;6.53;5.93;;;21.60;99.90;;;;;;5010363;28;20057;-66
2021/06/28 09:35:29;;;;;;;7.45;6.75;;;21.70;99.90;;;;;;5011502;28;20130;-67
2021/06/28 09:38:04;;;;;;;8.88;8.07;;;21.90;99.90;;;;;;5008491;28;20049;-68
2021/06/28 09:40:32;;;;;;;8.93;8.23;;;22.10;99.90;;;;;;5010473;28;20301;-66
2021/06/28 09:43:20;;;;;;;8.60;7.80;;;22.10;99.90;;;;;;5011036;28;20128;-67
2021/06/28 09:45:48;;;;;;;8.20;7.45;;;22.20;99.90;;;;;;5010506;28;20154;-67
2021/06/28 09:48:30;;;;;;;11.98;8.60;;;22.20;99.90;;;;;;5008661;28;20045;-67
2021/06/28 09:51:16;;;;;;;7.97;7.28;;;22.30;99.90;;;;;;5009033;28;20084;-68
2021/06/28 09:53:43;;;;;;;6.88;6.28;;;22.10;99.90;;;;;;5004997;28;20460;-68
2021/06/28 09:56:37;;;;;;;10.07;7.75;;;22.10;99.90;;;;;;5003761;28;20045;-66
2021/06/28 09:59:18;;;;;;;7.82;7.22;;;22.00;99.90;;;;;;5004162;28;20665;-68
2021/06/28 10:01:45;;;;;;;8.45;7.75;;;22.10;99.90;;;;;;5005092;28;20049;-67
2021/06/28 10:04:43;;;;;;;7.43;6.80;;;22.20;99.90;;;;;;5002399;28;20171;-67
2021/06/28 10:07:27;;;;;;;7.68;7.07;;;22.30;99.90;;;;;;5004078;28;20054;-67
2021/06/28 10:10:29;;;;;;;7.70;7.00;;;22.30;99.90;;;;;;5002642;28;20057;-68
2021/06/28 10:12:56;;;;;;;7.68;6.75;;;22.30;99.90;;;;;;5026300;28;20099;-67
2021/06/28 10:15:26;;;;;;;7.15;6.53;;;22.40;99.90;;;;;;5010690;28;20637;-67
2021/06/28 10:17:53;;;;;;;7.75;7.05;;;22.40;99.90;;;;;;5003907;28;20144;-68
2021/06/28 10:20:24;;;;;;;8.02;7.22;;;22.50;99.90;;;;;;5008425;28;20095;-67
2021/06/28 10:22:53;;;;;;;8.18;7.47;;;22.60;99.90;;;;;;5008996;28;20171;-67
2021/06/28 10:25:23;;;;;;;7.45;6.75;;;22.50;99.90;;;;;;5007793;28;20065;-67
2021/06/28 10:27:51;;;;;;;7.47;6.85;;;22.70;99.90;;;;;;5007859;28;20416;-68
2021/06/28 10:30:20;;;;;;;7.25;6.43;;;22.60;99.90;;;;;;5004943;28;20050;-67
2021/06/28 10:32:50;;;;;;;7.30;6.70;;;22.70;99.90;;;;;;5007873;28;20088;-67
2021/06/28 10:35:28;;;;;;;6.13;5.53;;;22.80;99.90;;;;;;5006198;28;20060;-67
2021/06/28 10:38:01;;;;;;;6.32;5.82;;;22.60;99.90;;;;;;5005886;28;20065;-68
2021/06/28 10:40:28;;;;;;;7.03;5.43;;;22.60;99.90;;;;;;5006119;28;20077;-69
2021/06/28 10:42:57;;;;;;;6.13;5.60;;;22.70;99.90;;;;;;5007923;28;20168;-66
2021/06/28 10:45:37;;;;;;;5.78;5.15;;;22.70;99.90;;;;;;5006170;28;20131;-68
2021/06/28 10:48:07;;;;;;;7.47;6.63;;;22.50;99.90;;;;;;5005214;28;20388;-66
2021/06/28 10:51:07;;;;;;;6.65;6.15;;;22.60;99.90;;;;;;5007109;28;20100;-67
2021/06/28 10:53:37;;;;;;;6.70;6.00;;;22.50;99.90;;;;;;5004318;28;20960;-68
2021/06/28 10:56:32;;;;;;;6.22;5.72;;;22.60;99.90;;;;;;5001993;28;20061;-66
2021/06/28 10:59:02;;;;;;;6.38;5.85;;;22.70;99.90;;;;;;5000613;28;20063;-67
2021/06/28 11:01:43;;;;;;;6.50;5.88;;;22.80;99.90;;;;;;5001695;28;20093;-66
2021/06/28 11:04:13;;;;;;;6.28;5.78;;;23.10;99.90;;;;;;4998668;28;20263;-66
2021/06/28 11:06:52;;;;;;;5.53;5.13;;;22.90;99.90;;;;;;4995866;28;20128;-66
2021/06/28 11:09:47;;;;;;;5.88;5.25;;;22.60;99.90;;;;;;5000533;28;20046;-67
2021/06/28 11:12:32;;;;;;;6.88;6.28;;;22.50;99.90;;;;;;5000579;28;20141;-67
2021/06/28 11:15:05;;;;;;;6.60;6.10;;;22.30;99.90;;;;;;5002862;28;20145;-66
2021/06/28 11:17:47;;;;;;;9.55;5.70;;;22.30;99.90;;;;;;5006853;28;20849;-66
2021/06/28 11:20:40;;;;;;;6.30;5.65;;;22.30;99.90;;;;;;5000882;28;20095;-67
2021/06/28 11:23:13;;;;;;;7.93;5.75;;;22.50;99.90;;;;;;5005150;28;20081;-68
2021/06/28 11:25:52;;;;;;;6.30;5.63;;;22.80;99.90;;;;;;5005594;28;20099;-65
2021/06/28 11:28:39;;;;;;;8.63;5.45;;;22.80;99.90;;;;;;5003999;28;20395;-69
2021/06/28 11:31:13;;;;;;;6.53;5.93;;;22.80;99.90;;;;;;5005806;28;20128;-66
2021/06/28 11:33:53;;;;;;;6.07;5.57;;;22.80;99.90;;;;;;5005400;28;20112;-66
2021/06/28 11:36:23;;;;;;;;;;;22.90;99.90;;;;;;5003705;28;20050;-66
2021/06/28 11:38:51;;;;;;;6.25;5.63;;;22.80;99.90;;;;;;5007270;28;20024;-65
2021/06/28 11:41:21;;;;;;;9.32;6.10;;;22.60;99.90;;;;;;5008807;28;20126;-65
2021/06/28 11:43:55;;;;;;;9.50;6.43;;;22.50;99.90;;;;;;5008178;28;20041;-67
2021/06/28 11:46:31;;;;;;;6.72;5.65;;;22.70;99.90;;;;;;5006447;28;21597;-69
2021/06/28 11:49:12;;;;;;;6.97;6.32;;;23.10;99.90;;;;;;5007846;28;20076;-67
2021/06/28 11:51:44;;;;;;;7.45;5.88;;;23.00;99.90;;;;;;5007662;28;20054;-65
2021/06/28 11:54:22;;;;;;;6.30;5.80;;;22.70;99.90;;;;;;5007438;28;20122;-65
2021/06/28 11:56:56;;;;;;;7.18;6.60;;;22.50;99.90;;;;;;5009019;28;21189;-69
2021/06/28 11:59:24;;;;;;;6.13;5.63;;;22.60;99.90;;;;;;5006111;28;20045;-68
2021/06/28 12:01:56;;;;;;;8.45;6.43;;;22.90;99.90;;;;;;5003161;28;20139;-69
2021/06/28 12:04:27;;;;;;;7.50;5.75;;;23.00;99.90;;;;;;5004471;28;20046;-68
2021/06/28 12:06:55;;;;;;;7.10;6.40;;;22.90;99.90;;;;;;5003824;28;20462;-70
2021/06/28 12:09:25;;;;;;;5.93;5.43;;;22.80;99.90;;;;;;5005119;28;20131;-67
2021/06/28 12:11:54;;;;;;;7.10;6.40;;;23.20;99.90;;;;;;5000978;28;20053;-68
2021/06/28 12:14:41;;;;;;;6.25;5.70;;;23.20;99.90;;;;;;5003690;28;20076;-68
2021/06/28 12:17:19;;;;;;;5.68;5.18;;;23.20;99.90;;;;;;5004034;28;20100;-69
2021/06/28 12:19:48;;;;;;;5.82;5.32;;;23.30;99.90;;;;;;5010807;28;20049;-69
2021/06/28 12:22:19;;;;;;;6.10;5.53;;;23.30;99.90;;;;;;5009262;28;20049;-67
2021/06/28 12:24:47;;;;;;;;;;;23.20;99.90;;;;;;5010571;28;20561;-69
2021/06/28 12:27:17;;;;;;;8.18;6.97;;;23.20;99.90;;;;;;5010476;28;20002;-68
2021/06/28 12:29:49;;;;;;;7.22;5.55;;;22.80;99.90;;;;;;5011435;28;20845;-69
2021/06/28 12:32:22;;;;;;;6.97;5.82;;;23.10;99.90;;;;;;5009163;28;20415;-70
2021/06/28 12:35:00;;;;;;;6.28;5.43;;;23.10;99.90;;;;;;5011529;28;20037;-69
2021/06/28 12:37:38;;;;;;;7.07;5.63;;;23.10;99.90;;;;;;5010624;28;20033;-69
2021/06/28 12:40:30;;;;;;;6.50;5.88;;;23.30;99.90;;;;;;5009485;28;20045;-67
2021/06/28 12:43:00;;;;;;;6.00;5.45;;;23.70;99.90;;;;;;5012083;28;20042;-68
2021/06/28 12:45:41;;;;;;;5.32;4.93;;;23.50;99.90;;;;;;5011729;28;20069;-70
2021/06/28 12:48:13;;;;;;;6.63;6.00;;;23.60;99.90;;;;;;5009820;28;20066;-69
2021/06/28 12:50:40;;;;;;;7.03;5.68;;;23.30;99.90;;;;;;5010945;28;20034;-66
2021/06/28 12:53:16;;;;;;;6.50;6.00;;;23.40;99.90;;;;;;5011731;28;20050;-69
2021/06/28 12:55:47;;;;;;;6.07;5.57;;;23.50;99.90;;;;;;5011929;28;20053;-69
2021/06/28 12:58:16;;;;;;;9.05;5.90;;;23.40;99.90;;;;;;5010384;28;20095;-68